createdAt,value
2022-08-25T00:00:21.398Z,4.32
2022-08-25T00:02:55.255Z,3.60
2022-08-25T00:05:29.444Z,4.00
2022-08-25T00:08:02.342Z,4.32
2022-08-25T00:10:32.323Z,4.18
2022-08-25T00:13:05.102Z,3.75
2022-08-25T00:15:35.025Z,4.15
2022-08-25T00:18:05.482Z,2.75
2022-08-25T00:20:49.052Z,5.40
2022-08-25T00:23:19.033Z,5.82
2022-08-25T00:25:48.818Z,4.55
2022-08-25T00:28:21.274Z,5.78
2022-08-25T00:30:51.288Z,7.00
2022-08-25T00:33:21.680Z,3.45
2022-08-25T00:35:51.327Z,3.70
2022-08-25T00:38:21.210Z,2.85
2022-08-25T00:41:05.872Z,7.43
2022-08-25T00:43:48.531Z,8.60
2022-08-25T00:46:21.378Z,3.42
2022-08-25T00:48:55.269Z,2.92
2022-08-25T00:51:30.948Z,2.90
2022-08-25T00:54:01.321Z,4.22
2022-08-25T00:56:32.149Z,3.78
2022-08-25T00:59:06.757Z,4.30
2022-08-25T01:01:36.772Z,3.47
2022-08-25T01:04:07.629Z,6.47
2022-08-25T01:06:39.569Z,4.05
2022-08-25T01:09:09.676Z,4.70
2022-08-25T01:11:39.893Z,3.85
2022-08-25T01:14:12.901Z,6.35
2022-08-25T01:16:43.815Z,3.33
2022-08-25T01:19:15.970Z,4.20
2022-08-25T01:21:49.761Z,2.80
2022-08-25T01:24:25.703Z,5.20
2022-08-25T01:26:55.425Z,2.90
2022-08-25T01:29:25.581Z,6.30
2022-08-25T01:31:59.418Z,3.63
2022-08-25T01:34:32.540Z,5.70
2022-08-25T01:37:05.231Z,3.17
2022-08-25T01:39:36.717Z,2.83
2022-08-25T01:42:17.419Z,4.25
2022-08-25T01:44:48.376Z,3.13
2022-08-25T01:47:18.776Z,6.53
2022-08-25T01:49:48.671Z,2.75
2022-08-25T01:52:23.940Z,2.85
2022-08-25T01:54:53.830Z,2.70
2022-08-25T01:57:23.622Z,3.45
2022-08-25T01:59:53.259Z,3.13
2022-08-25T02:02:23.446Z,3.05
2022-08-25T02:04:55.864Z,2.97
2022-08-25T02:07:28.921Z,3.78
2022-08-25T02:09:58.794Z,5.20
2022-08-25T02:12:33.193Z,3.63
2022-08-25T02:15:03.573Z,4.28
2022-08-25T02:17:33.407Z,3.63
2022-08-25T02:20:03.036Z,3.63
2022-08-25T02:22:35.332Z,4.63
2022-08-25T02:25:05.781Z,6.03
2022-08-25T02:27:35.462Z,2.97
2022-08-25T02:30:05.063Z,5.47
2022-08-25T02:32:34.712Z,3.00
2022-08-25T02:35:04.970Z,3.00
2022-08-25T02:37:38.045Z,4.80
2022-08-25T02:40:09.418Z,3.50
2022-08-25T02:42:39.136Z,3.67
2022-08-25T02:45:12.644Z,3.83
2022-08-25T02:47:42.621Z,3.42
2022-08-25T02:50:13.077Z,5.72
2022-08-25T02:52:45.417Z,3.30
2022-08-25T02:55:16.321Z,4.93
2022-08-25T02:57:46.180Z,3.10
2022-08-25T03:00:18.638Z,8.63
2022-08-25T03:02:48.727Z,5.90
2022-08-25T03:05:19.087Z,3.58
2022-08-25T03:07:51.325Z,3.88
2022-08-25T03:10:23.685Z,3.83
2022-08-25T03:12:53.329Z,3.25
2022-08-25T03:15:25.681Z,3.42
2022-08-25T03:17:55.285Z,4.55
2022-08-25T03:20:27.927Z,3.10
2022-08-25T03:23:00.475Z,3.40
2022-08-25T03:25:42.573Z,3.33
2022-08-25T03:28:12.367Z,4.05
2022-08-25T03:30:42.053Z,4.55
2022-08-25T03:33:12.001Z,4.15
2022-08-25T03:35:43.408Z,4.15
2022-08-25T03:38:16.967Z,7.70
2022-08-25T03:43:16.109Z,5.22
2022-08-25T03:45:47.741Z,5.15
2022-08-25T03:48:18.172Z,4.03
2022-08-25T03:50:50.527Z,3.97
2022-08-25T03:55:54.114Z,7.57
2022-08-25T03:58:23.841Z,3.85
2022-08-25T04:00:53.495Z,5.20
2022-08-25T04:03:23.156Z,5.78
2022-08-25T04:05:52.745Z,6.82
2022-08-25T04:08:25.313Z,5.03
2022-08-25T04:10:55.253Z,5.22
2022-08-25T04:13:24.867Z,7.72
2022-08-25T04:15:54.463Z,8.50
2022-08-25T04:18:24.079Z,6.75
2022-08-25T04:20:53.671Z,4.78
2022-08-25T04:23:25.844Z,4.80
2022-08-25T04:25:55.458Z,7.70
2022-08-25T04:28:27.777Z,5.07
2022-08-25T04:30:57.407Z,8.77
2022-08-25T04:33:27.030Z,7.47
2022-08-25T04:35:56.592Z,8.57
2022-08-25T04:38:28.929Z,5.13
2022-08-25T04:40:59.933Z,8.85
2022-08-25T04:43:29.790Z,6.32
2022-08-25T04:45:59.464Z,6.43
2022-08-25T04:48:29.516Z,5.57
2022-08-25T04:50:59.241Z,5.75
2022-08-25T04:53:31.420Z,6.13
2022-08-25T04:56:03.894Z,7.45
2022-08-25T04:58:33.831Z,5.32
2022-08-25T05:01:05.549Z,8.20
2022-08-25T05:03:35.422Z,5.07
2022-08-25T05:06:06.138Z,6.13
2022-08-25T05:08:38.645Z,4.70
2022-08-25T05:11:09.016Z,5.53
2022-08-25T05:13:39.100Z,5.15
2022-08-25T05:16:11.496Z,4.88
2022-08-25T05:18:41.583Z,6.18
2022-08-25T05:21:16.793Z,11.20
2022-08-25T05:23:49.664Z,7.28
2022-08-25T05:26:22.063Z,9.57
2022-08-25T05:28:53.178Z,11.20
2022-08-25T05:31:24.205Z,6.47
2022-08-25T05:33:54.532Z,7.65
2022-08-25T05:36:25.260Z,6.68
2022-08-25T05:38:57.528Z,7.60
2022-08-25T05:41:30.330Z,6.63
2022-08-25T05:44:00.227Z,14.05
2022-08-25T05:46:31.591Z,7.40
2022-08-25T05:49:02.017Z,6.65
2022-08-25T05:51:31.907Z,8.27
2022-08-25T05:54:04.142Z,9.70
2022-08-25T05:56:33.946Z,11.63
2022-08-25T05:59:08.669Z,9.73
2022-08-25T06:01:51.551Z,8.82
2022-08-25T06:04:22.618Z,6.30
2022-08-25T06:06:54.805Z,5.78
2022-08-25T06:09:27.340Z,6.72
2022-08-25T06:11:57.404Z,12.63
2022-08-25T06:14:27.515Z,5.65
2022-08-25T06:16:57.276Z,6.43
2022-08-25T06:19:26.873Z,6.28
2022-08-25T06:21:57.968Z,7.45
2022-08-25T06:24:31.483Z,8.65
2022-08-25T06:27:01.244Z,11.07
2022-08-25T06:29:30.859Z,8.38
2022-08-25T06:32:00.536Z,6.15
2022-08-25T06:34:30.956Z,8.70
2022-08-25T06:37:00.556Z,8.00
2022-08-25T06:39:32.745Z,5.60
2022-08-25T06:42:02.462Z,7.60
2022-08-25T06:44:32.855Z,4.93
2022-08-25T06:47:02.860Z,7.10
2022-08-25T06:49:35.999Z,8.32
2022-08-25T06:54:38.457Z,4.13
2022-08-25T06:57:09.278Z,4.10
2022-08-25T06:59:41.603Z,4.75
2022-08-25T07:02:11.488Z,4.28
2022-08-25T07:04:41.394Z,3.70
2022-08-25T07:07:11.053Z,4.10
2022-08-25T07:09:43.636Z,5.47
2022-08-25T07:12:13.369Z,6.30
2022-08-25T07:14:53.551Z,4.65
2022-08-25T07:17:33.451Z,5.05
2022-08-25T07:20:03.322Z,8.10
2022-08-25T07:22:32.998Z,5.32
2022-08-25T07:25:05.196Z,7.47
2022-08-25T07:27:34.813Z,5.00
2022-08-25T07:30:04.451Z,6.22
2022-08-25T07:32:34.076Z,4.50
2022-08-25T07:35:15.811Z,3.85
2022-08-25T07:37:50.134Z,5.13
2022-08-25T07:40:24.763Z,3.50
2022-08-25T07:42:56.609Z,5.30
2022-08-25T07:45:31.123Z,4.43
2022-08-25T07:48:01.747Z,3.75
2022-08-25T07:50:32.353Z,4.82
2022-08-25T07:53:02.299Z,4.93
2022-08-25T07:55:39.385Z,6.00
2022-08-25T07:58:10.179Z,5.97
2022-08-25T08:00:42.558Z,6.68
2022-08-25T08:03:35.239Z,3.75
2022-08-25T08:06:04.825Z,3.27
2022-08-25T08:08:34.500Z,5.03
2022-08-25T08:11:09.711Z,3.95
2022-08-25T08:13:41.500Z,3.72
2022-08-25T08:16:13.171Z,4.72
2022-08-25T08:18:43.486Z,3.45
2022-08-25T08:21:19.988Z,3.78
2022-08-25T08:23:51.964Z,3.25
2022-08-25T08:26:36.370Z,4.00
2022-08-25T08:29:16.502Z,3.28
2022-08-25T08:31:48.740Z,4.47
2022-08-25T08:34:19.005Z,3.25
2022-08-25T08:36:48.657Z,5.28
2022-08-25T08:39:18.389Z,5.13
2022-08-25T08:42:22.433Z,6.38
2022-08-25T08:45:09.470Z,3.15
2022-08-25T08:47:57.227Z,6.95
2022-08-25T08:50:32.947Z,5.88
2022-08-25T08:53:09.232Z,3.38
2022-08-25T08:55:42.517Z,3.67
2022-08-25T08:58:21.612Z,3.38
2022-08-25T09:00:58.456Z,4.00
2022-08-25T09:03:36.871Z,6.85
2022-08-25T09:06:13.946Z,3.13
2022-08-25T09:08:45.148Z,3.35
2022-08-25T09:11:20.645Z,5.85
2022-08-25T09:14:04.869Z,2.65
2022-08-25T09:16:57.609Z,3.17
2022-08-25T09:19:50.489Z,3.53
2022-08-25T09:22:33.612Z,3.08
2022-08-25T09:25:10.397Z,4.07
2022-08-25T09:27:44.457Z,4.38
2022-08-25T09:30:18.685Z,4.70
2022-08-25T09:32:53.666Z,3.70
2022-08-25T09:35:26.147Z,5.32
2022-08-25T09:38:00.047Z,2.80
2022-08-25T09:40:31.541Z,4.85
2022-08-25T09:43:03.204Z,3.78
2022-08-25T09:45:40.039Z,2.65
2022-08-25T09:48:29.550Z,2.67
2022-08-25T09:51:03.664Z,5.03
2022-08-25T09:53:35.457Z,5.88
2022-08-25T09:56:08.114Z,3.33
2022-08-25T09:58:38.195Z,3.97
2022-08-25T10:01:16.754Z,4.72
2022-08-25T10:04:01.621Z,2.55
2022-08-25T10:06:37.139Z,4.03
2022-08-25T10:09:08.858Z,4.03
2022-08-25T10:11:44.781Z,6.45
2022-08-25T10:14:25.132Z,2.70
2022-08-25T10:17:16.303Z,3.10
2022-08-25T10:19:46.747Z,2.80
2022-08-25T10:22:26.939Z,3.65
2022-08-25T10:24:56.988Z,6.65
2022-08-25T10:27:32.896Z,3.85
2022-08-25T10:30:14.605Z,3.97
2022-08-25T10:32:59.613Z,3.35
2022-08-25T10:35:33.637Z,3.53
2022-08-25T10:38:13.457Z,4.30
2022-08-25T10:40:57.186Z,4.97
2022-08-25T10:43:37.551Z,3.00
2022-08-25T10:46:18.707Z,4.32
2022-08-25T10:49:01.619Z,3.17
2022-08-25T10:51:39.429Z,3.38
2022-08-25T10:54:18.331Z,3.30
2022-08-25T10:56:53.536Z,4.20
2022-08-25T10:59:36.224Z,3.95
2022-08-25T11:02:27.212Z,4.68
2022-08-25T11:05:03.283Z,3.83
2022-08-25T11:07:36.472Z,4.70
2022-08-25T11:10:09.871Z,4.57
2022-08-25T11:12:44.002Z,4.47
2022-08-25T11:15:16.305Z,3.17
2022-08-25T11:17:52.108Z,3.28
2022-08-25T11:20:30.477Z,3.40
2022-08-25T11:23:14.788Z,3.50
2022-08-25T11:25:46.246Z,5.13
2022-08-25T11:28:19.325Z,6.20
2022-08-25T11:30:49.224Z,3.53
2022-08-25T11:33:20.265Z,3.60
2022-08-25T11:35:54.930Z,3.63
2022-08-25T11:38:38.738Z,3.90
2022-08-25T11:41:21.531Z,3.65
2022-08-25T11:44:02.344Z,3.72
2022-08-25T11:46:46.781Z,4.72
2022-08-25T11:49:31.689Z,4.25
2022-08-25T11:52:03.938Z,4.75
2022-08-25T11:54:38.960Z,4.00
2022-08-25T11:57:26.850Z,5.40
2022-08-25T12:00:07.948Z,4.03
2022-08-25T12:02:40.477Z,4.75
2022-08-25T12:05:16.014Z,3.60
2022-08-25T12:08:19.922Z,4.03
2022-08-25T12:13:42.621Z,4.35
2022-08-25T12:16:44.667Z,4.20
2022-08-25T12:19:29.966Z,4.72
2022-08-25T12:22:03.683Z,4.03
2022-08-25T12:24:56.113Z,4.80
2022-08-25T12:27:33.842Z,3.70
2022-08-25T12:30:05.670Z,4.22
2022-08-25T12:32:53.054Z,3.60
2022-08-25T12:35:30.158Z,3.85
2022-08-25T12:38:06.055Z,4.93
2022-08-25T12:40:42.167Z,3.97
2022-08-25T12:43:14.784Z,3.70
2022-08-25T12:45:50.209Z,4.28
2022-08-25T12:49:07.572Z,4.93
2022-08-25T12:51:58.972Z,4.03
2022-08-25T12:54:42.429Z,3.80
2022-08-25T12:57:29.600Z,5.22
2022-08-25T13:00:05.557Z,3.88
2022-08-25T13:03:03.043Z,5.43
2022-08-25T13:05:49.164Z,7.25
2022-08-25T13:08:49.157Z,5.10
2022-08-25T13:11:23.502Z,3.60
2022-08-25T13:14:01.769Z,3.50
2022-08-25T13:16:33.824Z,3.35
2022-08-25T13:19:08.295Z,3.22
2022-08-25T13:21:39.835Z,5.63
2022-08-25T13:24:12.872Z,3.97
2022-08-25T13:29:24.325Z,5.22
2022-08-25T13:31:57.788Z,3.35
2022-08-25T13:34:34.662Z,4.50
2022-08-25T13:37:21.331Z,3.15
2022-08-25T13:39:56.059Z,3.38
2022-08-25T13:42:28.965Z,6.00
2022-08-25T13:45:01.808Z,3.22
2022-08-25T13:47:43.766Z,3.70
2022-08-25T13:50:21.571Z,6.95
2022-08-25T13:52:54.425Z,3.53
2022-08-25T13:55:27.579Z,3.30
2022-08-25T13:57:57.980Z,5.63
2022-08-25T14:00:35.916Z,3.50
2022-08-25T14:03:12.662Z,3.90
2022-08-25T14:05:46.709Z,3.72
2022-08-25T14:08:33.785Z,4.47
2022-08-25T14:11:15.092Z,4.10
2022-08-25T14:13:46.408Z,4.50
2022-08-25T14:16:23.104Z,3.80
2022-08-25T14:18:58.801Z,6.70
2022-08-25T14:21:31.354Z,3.92
2022-08-25T14:24:01.578Z,6.10
2022-08-25T14:26:32.611Z,4.95
2022-08-25T14:29:03.177Z,4.13
2022-08-25T14:31:44.951Z,3.72
2022-08-25T14:34:17.127Z,3.70
2022-08-25T14:36:48.514Z,3.60
2022-08-25T14:39:18.788Z,3.67
2022-08-25T14:41:52.566Z,3.88
2022-08-25T14:44:23.057Z,8.65
2022-08-25T14:46:58.070Z,3.63
2022-08-25T14:49:33.777Z,3.92
2022-08-25T14:52:08.696Z,4.28
2022-08-25T14:54:38.400Z,4.22
2022-08-25T14:57:08.222Z,4.53
2022-08-25T14:59:43.068Z,3.83
2022-08-25T15:02:20.097Z,4.68
2022-08-25T15:04:53.661Z,3.60
2022-08-25T15:07:35.569Z,3.65
2022-08-25T15:10:05.491Z,3.53
2022-08-25T15:12:46.586Z,4.13
2022-08-25T15:15:18.252Z,3.90
2022-08-25T15:17:50.901Z,4.25
2022-08-25T15:20:20.905Z,3.93
2022-08-25T15:22:50.869Z,5.93
2022-08-25T15:25:20.693Z,3.80
2022-08-25T15:27:50.863Z,5.80
2022-08-25T15:30:20.686Z,3.30
2022-08-25T15:32:52.931Z,3.67
2022-08-25T15:35:27.708Z,3.08
2022-08-25T15:37:59.255Z,3.20
2022-08-25T15:40:29.348Z,3.10
2022-08-25T15:42:59.091Z,2.97
2022-08-25T15:45:28.996Z,3.97
2022-08-25T15:48:02.994Z,3.92
2022-08-25T15:50:33.118Z,4.13
2022-08-25T15:53:03.129Z,7.13
2022-08-25T15:55:33.331Z,5.00
2022-08-25T15:58:03.189Z,4.72
2022-08-25T16:00:33.888Z,3.30
2022-08-25T16:03:08.495Z,3.83
2022-08-25T16:08:19.128Z,4.30
2022-08-25T16:10:50.241Z,3.30
2022-08-25T16:13:23.039Z,3.53
2022-08-25T16:15:54.321Z,3.33
2022-08-25T16:18:27.046Z,3.30
2022-08-25T16:20:57.422Z,4.82
2022-08-25T16:23:27.929Z,2.92
2022-08-25T16:25:57.956Z,4.43
2022-08-25T16:28:28.403Z,3.90
2022-08-25T16:30:58.233Z,6.15
2022-08-25T16:33:30.789Z,3.63
2022-08-25T16:36:09.473Z,4.32
2022-08-25T16:38:40.116Z,4.65
2022-08-25T16:41:10.180Z,3.25
2022-08-25T16:43:39.992Z,4.60
2022-08-25T16:46:13.271Z,3.42
2022-08-25T16:48:46.476Z,3.20
2022-08-25T16:51:19.522Z,4.25
2022-08-25T16:54:04.975Z,3.30
2022-08-25T16:56:35.855Z,3.67
2022-08-25T16:59:08.228Z,5.63
2022-08-25T17:01:40.912Z,3.42
2022-08-25T17:04:15.320Z,5.72
2022-08-25T17:06:51.515Z,4.40
2022-08-25T17:09:23.802Z,3.80
2022-08-25T17:11:56.914Z,5.57
2022-08-25T17:14:27.717Z,6.40
2022-08-25T17:16:57.358Z,3.28
2022-08-25T17:19:29.889Z,3.50
2022-08-25T17:21:59.517Z,3.35
2022-08-25T17:24:31.695Z,3.40
2022-08-25T17:27:02.078Z,5.07
2022-08-25T17:29:33.413Z,3.47
2022-08-25T17:32:03.512Z,4.55
2022-08-25T17:34:36.670Z,6.53
2022-08-25T17:39:36.873Z,3.67
2022-08-25T17:42:08.242Z,3.88
2022-08-25T17:44:38.387Z,6.45
2022-08-25T17:47:09.343Z,5.05
2022-08-25T17:49:41.853Z,3.95
2022-08-25T17:52:13.164Z,3.63
2022-08-25T17:54:43.025Z,3.53
2022-08-25T17:57:14.183Z,4.60
2022-08-25T17:59:44.156Z,8.35
2022-08-25T18:02:13.984Z,5.47
2022-08-25T18:04:50.335Z,4.90
2022-08-25T18:07:19.960Z,3.80
2022-08-25T18:09:51.178Z,5.65
2022-08-25T18:12:20.832Z,5.40
2022-08-25T18:14:50.489Z,3.65
2022-08-25T18:17:21.963Z,4.78
2022-08-25T18:19:55.709Z,3.75
2022-08-25T18:22:26.042Z,8.15
2022-08-25T18:24:55.943Z,4.82
2022-08-25T18:27:25.835Z,7.03
2022-08-25T18:29:55.839Z,4.68
2022-08-25T18:32:26.443Z,5.57
2022-08-25T18:35:01.833Z,5.18
2022-08-25T18:37:44.041Z,5.33
2022-08-25T18:40:30.633Z,8.57
2022-08-25T18:43:08.188Z,4.82
2022-08-25T18:45:42.679Z,6.07
2022-08-25T18:48:12.645Z,6.00
2022-08-25T18:50:51.729Z,5.55
2022-08-25T18:53:30.453Z,5.40
2022-08-25T18:56:07.371Z,6.13
2022-08-25T18:58:37.191Z,4.50
2022-08-25T19:01:07.408Z,8.90
2022-08-25T19:03:42.015Z,8.68
2022-08-25T19:06:14.874Z,6.68
2022-08-25T19:08:45.236Z,10.93
2022-08-25T19:11:15.922Z,7.70
2022-08-25T19:13:45.838Z,7.00
2022-08-25T19:16:17.738Z,7.00
2022-08-25T19:18:52.208Z,9.85
2022-08-25T19:21:24.678Z,7.70
2022-08-25T19:23:54.490Z,7.20
2022-08-25T19:26:24.869Z,6.95
2022-08-25T19:28:55.475Z,8.82
2022-08-25T19:31:33.235Z,7.55
2022-08-25T19:34:03.677Z,7.55
2022-08-25T19:36:36.309Z,10.95
2022-08-25T19:39:07.597Z,8.68
2022-08-25T19:41:38.494Z,11.15
2022-08-25T19:44:08.742Z,7.05
2022-08-25T19:46:40.598Z,9.02
2022-08-25T19:49:17.395Z,8.65
2022-08-25T19:51:52.347Z,7.63
2022-08-25T19:54:24.364Z,7.40
2022-08-25T19:56:55.571Z,7.53
2022-08-25T19:59:34.246Z,6.57
2022-08-25T20:02:12.890Z,14.07
2022-08-25T20:04:49.203Z,9.27
2022-08-25T20:07:23.947Z,21.00
2022-08-25T20:09:54.534Z,10.40
2022-08-25T20:12:25.294Z,16.80
2022-08-25T20:14:56.215Z,7.53
2022-08-25T20:17:28.509Z,7.32
2022-08-25T20:20:00.200Z,8.50
2022-08-25T20:22:35.092Z,8.23
2022-08-25T20:25:13.079Z,14.50
2022-08-25T20:27:45.747Z,7.70
2022-08-25T20:30:17.986Z,9.95
2022-08-25T20:32:48.146Z,10.00
2022-08-25T20:35:18.687Z,11.52
2022-08-25T20:37:53.177Z,7.15
2022-08-25T20:40:26.765Z,7.25
2022-08-25T20:42:57.116Z,7.22
2022-08-25T20:45:27.692Z,7.90
2022-08-25T20:47:58.070Z,12.65
2022-08-25T20:50:28.719Z,7.75
2022-08-25T20:53:01.105Z,9.80
2022-08-25T20:55:30.746Z,8.95
2022-08-25T20:58:00.495Z,9.20
2022-08-25T21:00:30.116Z,9.27
2022-08-25T21:02:59.651Z,7.97
2022-08-25T21:05:30.348Z,8.10
2022-08-25T21:08:03.950Z,10.40
2022-08-25T21:10:33.652Z,8.63
2022-08-25T21:13:03.532Z,11.13
2022-08-25T21:15:33.415Z,14.05
2022-08-25T21:18:04.127Z,10.20
2022-08-25T21:20:34.023Z,7.82
2022-08-25T21:23:08.141Z,9.27
2022-08-25T21:25:41.802Z,9.52
2022-08-25T21:28:11.460Z,6.70
2022-08-25T21:30:44.763Z,8.07
2022-08-25T21:33:17.004Z,7.97
2022-08-25T21:35:46.968Z,7.20
2022-08-25T21:38:19.207Z,7.90
2022-08-25T21:40:48.839Z,10.05
2022-08-25T21:43:18.760Z,8.55
2022-08-25T21:45:48.633Z,9.98
2022-08-25T21:48:19.533Z,6.38
2022-08-25T21:50:49.466Z,8.07
2022-08-25T21:53:21.872Z,5.80
2022-08-25T21:55:51.509Z,6.45
2022-08-25T21:58:21.701Z,5.80
2022-08-25T22:00:52.801Z,10.55
2022-08-25T22:03:23.274Z,10.13
2022-08-25T22:05:53.153Z,6.75
2022-08-25T22:08:30.446Z,6.65
2022-08-25T22:11:00.626Z,5.95
2022-08-25T22:13:30.378Z,6.72
2022-08-25T22:16:00.270Z,9.57
2022-08-25T22:18:30.167Z,7.80
2022-08-25T22:21:00.354Z,7.05
2022-08-25T22:23:44.480Z,6.05
2022-08-25T22:26:15.325Z,6.80
2022-08-25T22:28:46.563Z,8.48
2022-08-25T22:31:20.877Z,8.15
2022-08-25T22:33:51.036Z,6.88
2022-08-25T22:36:24.482Z,8.50
2022-08-25T22:38:57.962Z,6.53
2022-08-25T22:41:29.475Z,6.80
2022-08-25T22:43:59.370Z,6.88
2022-08-25T22:46:31.263Z,8.43
2022-08-25T22:49:01.305Z,6.82
2022-08-25T22:51:32.838Z,7.45
2022-08-25T22:54:06.506Z,10.67
2022-08-25T22:56:40.039Z,10.93
2022-08-25T22:59:12.520Z,9.70
2022-08-25T23:01:42.562Z,6.55
2022-08-25T23:04:13.687Z,6.32
2022-08-25T23:06:43.922Z,7.97
2022-08-25T23:09:16.586Z,8.85
2022-08-25T23:11:46.331Z,6.03
2022-08-25T23:14:16.275Z,8.52
2022-08-25T23:16:46.242Z,8.90
2022-08-25T23:19:17.289Z,6.00
2022-08-25T23:22:00.119Z,5.85
2022-08-25T23:24:33.242Z,6.03
2022-08-25T23:27:04.373Z,9.17
2022-08-25T23:29:34.957Z,6.00
2022-08-25T23:32:07.236Z,6.20
2022-08-25T23:34:38.276Z,7.78
2022-08-25T23:37:09.878Z,5.37
2022-08-25T23:39:45.654Z,6.07
2022-08-25T23:42:15.631Z,8.63
2022-08-25T23:44:45.593Z,10.10
2022-08-25T23:47:15.602Z,7.60
2022-08-25T23:49:45.153Z,6.30
2022-08-25T23:52:17.360Z,6.30
2022-08-25T23:54:49.921Z,8.80
2022-08-25T23:57:19.635Z,6.07
2022-08-25T23:59:49.499Z,8.48
